sensor_id;sensor_type;location;lat;lon;timestamp;pressure;altitude;pressure_sealevel;temperature;humidity
79028;BME280;68427;48.476;19.102;2023-04-03T00:02:20;97376.31;;;1.68;69.74
79028;BME280;68427;48.476;19.102;2023-04-03T00:04:46;97385.84;;;1.67;69.71
79028;BME280;68427;48.476;19.102;2023-04-03T00:07:11;97379.19;;;1.65;70.68
79028;BME280;68427;48.476;19.102;2023-04-03T00:09:37;97385.72;;;1.59;70.09
79028;BME280;68427;48.476;19.102;2023-04-03T00:12:05;97376.78;;;1.54;70.48
79028;BME280;68427;48.476;19.102;2023-04-03T00:14:30;97381.19;;;1.43;70.33
79028;BME280;68427;48.476;19.102;2023-04-03T00:16:56;97384.28;;;1.37;70.71
79028;BME280;68427;48.476;19.102;2023-04-03T00:19:22;97378.75;;;1.32;70.27
79028;BME280;68427;48.476;19.102;2023-04-03T00:21:48;97376.84;;;1.34;70.02
79028;BME280;68427;48.476;19.102;2023-04-03T00:24:13;97378.75;;;1.32;70.95
79028;BME280;68427;48.476;19.102;2023-04-03T00:26:39;97389.22;;;1.31;70.24
79028;BME280;68427;48.476;19.102;2023-04-03T00:29:06;97383.91;;;1.22;70.50
79028;BME280;68427;48.476;19.102;2023-04-03T00:31:32;97384.59;;;1.24;71.10
79028;BME280;68427;48.476;19.102;2023-04-03T00:33:58;97378.25;;;1.19;70.87
79028;BME280;68427;48.476;19.102;2023-04-03T00:36:23;97391.81;;;1.21;70.31
79028;BME280;68427;48.476;19.102;2023-04-03T00:38:49;97383.94;;;1.13;69.81
79028;BME280;68427;48.476;19.102;2023-04-03T00:41:15;97381.63;;;1.10;71.09
79028;BME280;68427;48.476;19.102;2023-04-03T00:43:41;97381.22;;;1.04;71.63
79028;BME280;68427;48.476;19.102;2023-04-03T00:46:08;97385.72;;;1.02;71.17
79028;BME280;68427;48.476;19.102;2023-04-03T00:48:36;97384.38;;;0.98;72.02
79028;BME280;68427;48.476;19.102;2023-04-03T00:51:06;97383.97;;;0.93;72.21
79028;BME280;68427;48.476;19.102;2023-04-03T00:53:35;97387.88;;;0.88;70.95
79028;BME280;68427;48.476;19.102;2023-04-03T00:56:05;97386.44;;;0.75;71.32
79028;BME280;68427;48.476;19.102;2023-04-03T00:58:34;97382.31;;;0.73;71.97
79028;BME280;68427;48.476;19.102;2023-04-03T01:01:05;97391.41;;;0.67;72.18
79028;BME280;68427;48.476;19.102;2023-04-03T01:03:33;97385.84;;;0.62;72.57
79028;BME280;68427;48.476;19.102;2023-04-03T01:05:59;97396.44;;;0.59;71.74
79028;BME280;68427;48.476;19.102;2023-04-03T01:08:25;97386.41;;;0.56;71.76
79028;BME280;68427;48.476;19.102;2023-04-03T01:10:51;97381.25;;;0.46;73.02
79028;BME280;68427;48.476;19.102;2023-04-03T01:13:22;97382.47;;;0.52;72.28
79028;BME280;68427;48.476;19.102;2023-04-03T01:15:48;97382.19;;;0.45;72.35
79028;BME280;68427;48.476;19.102;2023-04-03T01:18:14;97390.19;;;0.42;72.15
79028;BME280;68427;48.476;19.102;2023-04-03T01:20:59;97384.88;;;0.34;72.10
79028;BME280;68427;48.476;19.102;2023-04-03T01:24:09;97382.44;;;0.32;72.43
79028;BME280;68427;48.476;19.102;2023-04-03T01:26:37;97383.09;;;0.25;72.89
79028;BME280;68427;48.476;19.102;2023-04-03T01:29:03;97376.59;;;0.20;72.77
79028;BME280;68427;48.476;19.102;2023-04-03T01:31:40;97382.84;;;0.18;73.98
79028;BME280;68427;48.476;19.102;2023-04-03T01:34:05;97384.03;;;0.14;73.49
79028;BME280;68427;48.476;19.102;2023-04-03T01:36:31;97378.75;;;0.15;73.51
79028;BME280;68427;48.476;19.102;2023-04-03T01:38:59;97390.00;;;0.14;73.71
79028;BME280;68427;48.476;19.102;2023-04-03T01:41:26;97392.97;;;0.10;73.09
79028;BME280;68427;48.476;19.102;2023-04-03T01:43:52;97378.84;;;0.04;73.37
79028;BME280;68427;48.476;19.102;2023-04-03T01:46:18;97382.38;;;0.03;73.87
79028;BME280;68427;48.476;19.102;2023-04-03T01:48:45;97389.00;;;-0.04;73.42
79028;BME280;68427;48.476;19.102;2023-04-03T01:51:11;97384.13;;;-0.07;74.28
79028;BME280;68427;48.476;19.102;2023-04-03T01:53:37;97395.91;;;-0.05;74.41
79028;BME280;68427;48.476;19.102;2023-04-03T01:56:03;97386.53;;;-0.06;74.71
79028;BME280;68427;48.476;19.102;2023-04-03T01:58:29;97388.19;;;-0.05;74.37
79028;BME280;68427;48.476;19.102;2023-04-03T02:00:55;97390.19;;;-0.08;74.73
79028;BME280;68427;48.476;19.102;2023-04-03T02:03:21;97383.28;;;-0.08;74.62
79028;BME280;68427;48.476;19.102;2023-04-03T02:05:49;97391.00;;;-0.08;74.89
79028;BME280;68427;48.476;19.102;2023-04-03T02:08:15;97385.03;;;-0.08;74.66
79028;BME280;68427;48.476;19.102;2023-04-03T02:10:43;97385.03;;;-0.08;74.90
79028;BME280;68427;48.476;19.102;2023-04-03T02:13:08;97380.97;;;-0.11;74.42
79028;BME280;68427;48.476;19.102;2023-04-03T02:15:37;97388.00;;;-0.13;75.12
79028;BME280;68427;48.476;19.102;2023-04-03T02:18:03;97385.84;;;-0.17;74.42
79028;BME280;68427;48.476;19.102;2023-04-03T02:20:29;97386.09;;;-0.20;74.78
79028;BME280;68427;48.476;19.102;2023-04-03T02:22:56;97385.28;;;-0.21;74.69
79028;BME280;68427;48.476;19.102;2023-04-03T02:25:22;97382.84;;;-0.23;74.88
79028;BME280;68427;48.476;19.102;2023-04-03T02:27:47;97382.84;;;-0.23;75.51
79028;BME280;68427;48.476;19.102;2023-04-03T02:30:13;97394.59;;;-0.30;75.89
79028;BME280;68427;48.476;19.102;2023-04-03T02:32:40;97389.56;;;-0.31;75.94
79028;BME280;68427;48.476;19.102;2023-04-03T02:35:07;97388.63;;;-0.30;76.09
79028;BME280;68427;48.476;19.102;2023-04-03T02:37:32;97387.13;;;-0.33;75.71
79028;BME280;68427;48.476;19.102;2023-04-03T02:39:59;97391.34;;;-0.32;76.45
79028;BME280;68427;48.476;19.102;2023-04-03T02:42:25;97384.81;;;-0.36;76.28
79028;BME280;68427;48.476;19.102;2023-04-03T02:44:51;97389.47;;;-0.30;75.40
79028;BME280;68427;48.476;19.102;2023-04-03T02:47:17;97381.97;;;-0.33;76.73
79028;BME280;68427;48.476;19.102;2023-04-03T02:49:43;97392.16;;;-0.31;76.78
79028;BME280;68427;48.476;19.102;2023-04-03T02:52:12;97393.91;;;-0.32;76.67
79028;BME280;68427;48.476;19.102;2023-04-03T02:54:37;97392.41;;;-0.34;76.70
79028;BME280;68427;48.476;19.102;2023-04-03T02:57:04;97394.28;;;-0.36;76.73
79028;BME280;68427;48.476;19.102;2023-04-03T02:59:30;97394.84;;;-0.33;76.09
79028;BME280;68427;48.476;19.102;2023-04-03T03:01:56;97386.47;;;-0.35;76.38
79028;BME280;68427;48.476;19.102;2023-04-03T03:04:22;97398.25;;;-0.32;77.01
79028;BME280;68427;48.476;19.102;2023-04-03T03:06:48;97397.03;;;-0.28;76.55
79028;BME280;68427;48.476;19.102;2023-04-03T03:09:13;97401.91;;;-0.25;76.39
79028;BME280;68427;48.476;19.102;2023-04-03T03:11:40;97399.47;;;-0.27;76.44
79028;BME280;68427;48.476;19.102;2023-04-03T03:14:07;97400.28;;;-0.26;76.54
79028;BME280;68427;48.476;19.102;2023-04-03T03:16:33;97402.19;;;-0.28;76.93
79028;BME280;68427;48.476;19.102;2023-04-03T03:18:58;97398.53;;;-0.26;76.45
79028;BME280;68427;48.476;19.102;2023-04-03T03:21:25;97413.28;;;-0.28;76.77
79028;BME280;68427;48.476;19.102;2023-04-03T03:23:51;97402.75;;;-0.25;76.74
79028;BME280;68427;48.476;19.102;2023-04-03T03:26:17;97407.63;;;-0.22;76.40
79028;BME280;68427;48.476;19.102;2023-04-03T03:28:42;97398.97;;;-0.20;76.85
79028;BME280;68427;48.476;19.102;2023-04-03T03:31:10;97411.06;;;-0.11;75.65
79028;BME280;68427;48.476;19.102;2023-04-03T03:33:36;97400.50;;;-0.08;75.70
79028;BME280;68427;48.476;19.102;2023-04-03T03:36:01;97405.00;;;-0.01;75.55
79028;BME280;68427;48.476;19.102;2023-04-03T03:38:27;97410.72;;;0.03;74.98
79028;BME280;68427;48.476;19.102;2023-04-03T03:40:53;97391.72;;;0.04;75.15
79028;BME280;68427;48.476;19.102;2023-04-03T03:43:19;97378.09;;;0.23;74.90
79028;BME280;68427;48.476;19.102;2023-04-03T03:45:50;97382.84;;;0.37;73.58
79028;BME280;68427;48.476;19.102;2023-04-03T03:48:17;97392.78;;;0.52;73.34
79028;BME280;68427;48.476;19.102;2023-04-03T03:50:43;97388.72;;;0.59;73.05
79028;BME280;68427;48.476;19.102;2023-04-03T03:53:09;97387.06;;;0.68;72.94
79028;BME280;68427;48.476;19.102;2023-04-03T03:55:35;97381.41;;;0.74;72.38
79028;BME280;68427;48.476;19.102;2023-04-03T03:58:00;97382.75;;;0.78;72.61
79028;BME280;68427;48.476;19.102;2023-04-03T04:00:27;97392.00;;;0.80;71.41
79028;BME280;68427;48.476;19.102;2023-04-03T04:02:53;97394.13;;;0.85;71.20
79028;BME280;68427;48.476;19.102;2023-04-03T04:05:20;97389.94;;;0.94;71.38
79028;BME280;68427;48.476;19.102;2023-04-03T04:07:46;97394.69;;;0.98;71.32
79028;BME280;68427;48.476;19.102;2023-04-03T04:10:11;97388.56;;;0.99;71.01
79028;BME280;68427;48.476;19.102;2023-04-03T04:12:39;97394.94;;;1.05;70.47
79028;BME280;68427;48.476;19.102;2023-04-03T04:15:05;97395.88;;;1.14;71.00
79028;BME280;68427;48.476;19.102;2023-04-03T04:17:31;97397.22;;;1.18;69.42
79028;BME280;68427;48.476;19.102;2023-04-03T04:19:57;97396.56;;;1.25;69.61
79028;BME280;68427;48.476;19.102;2023-04-03T04:22:24;97385.53;;;1.33;67.76
79028;BME280;68427;48.476;19.102;2023-04-03T04:24:50;97402.34;;;1.37;68.08
79028;BME280;68427;48.476;19.102;2023-04-03T04:27:15;97391.72;;;1.50;67.75
79028;BME280;68427;48.476;19.102;2023-04-03T04:29:41;97392.66;;;1.59;67.03
79028;BME280;68427;48.476;19.102;2023-04-03T04:32:07;97396.31;;;1.66;66.41
79028;BME280;68427;48.476;19.102;2023-04-03T04:34:34;97398.22;;;1.64;66.50
79028;BME280;68427;48.476;19.102;2023-04-03T04:37:00;97394.84;;;1.63;65.27
79028;BME280;68427;48.476;19.102;2023-04-03T04:39:27;97396.97;;;1.68;65.01
79028;BME280;68427;48.476;19.102;2023-04-03T04:41:53;97394.94;;;1.71;65.57
79028;BME280;68427;48.476;19.102;2023-04-03T04:44:18;97407.56;;;1.75;65.66
79028;BME280;68427;48.476;19.102;2023-04-03T04:46:45;97401.97;;;1.79;64.65
79028;BME280;68427;48.476;19.102;2023-04-03T04:49:11;97406.47;;;1.77;64.89
79028;BME280;68427;48.476;19.102;2023-04-03T04:51:36;97405.53;;;1.78;65.80
79028;BME280;68427;48.476;19.102;2023-04-03T04:54:02;97394.50;;;1.76;65.25
79028;BME280;68427;48.476;19.102;2023-04-03T04:56:29;97403.59;;;1.80;64.82
79028;BME280;68427;48.476;19.102;2023-04-03T04:58:55;97403.56;;;1.90;64.39
79028;BME280;68427;48.476;19.102;2023-04-03T05:01:21;97405.28;;;1.99;64.13
79028;BME280;68427;48.476;19.102;2023-04-03T05:03:47;97417.78;;;2.04;63.21
79028;BME280;68427;48.476;19.102;2023-04-03T05:06:13;97405.66;;;2.04;63.80
79028;BME280;68427;48.476;19.102;2023-04-03T05:08:39;97409.31;;;2.11;63.28
79028;BME280;68427;48.476;19.102;2023-04-03T05:11:04;97411.97;;;2.20;63.26
79028;BME280;68427;48.476;19.102;2023-04-03T05:13:32;97408.72;;;2.17;62.74
79028;BME280;68427;48.476;19.102;2023-04-03T05:15:57;97412.75;;;2.30;62.00
79028;BME280;68427;48.476;19.102;2023-04-03T05:18:23;97421.41;;;2.38;60.99
79028;BME280;68427;48.476;19.102;2023-04-03T05:20:49;97408.69;;;2.45;61.50
79028;BME280;68427;48.476;19.102;2023-04-03T05:23:18;97419.41;;;2.50;61.38
79028;BME280;68427;48.476;19.102;2023-04-03T05:25:44;97422.75;;;2.60;60.38
79028;BME280;68427;48.476;19.102;2023-04-03T05:28:12;97408.66;;;2.73;60.12
79028;BME280;68427;48.476;19.102;2023-04-03T05:30:39;97415.78;;;2.89;59.20
79028;BME280;68427;48.476;19.102;2023-04-03T05:33:05;97415.09;;;3.05;58.01
79028;BME280;68427;48.476;19.102;2023-04-03T05:35:31;97420.75;;;3.26;57.48
79028;BME280;68427;48.476;19.102;2023-04-03T05:37:57;97428.19;;;3.47;57.65
79028;BME280;68427;48.476;19.102;2023-04-03T05:40:22;97427.34;;;3.64;56.18
79028;BME280;68427;48.476;19.102;2023-04-03T05:42:48;97424.56;;;3.92;55.77
79028;BME280;68427;48.476;19.102;2023-04-03T05:45:14;97420.97;;;4.19;54.33
79028;BME280;68427;48.476;19.102;2023-04-03T05:47:41;97425.09;;;4.46;52.86
79028;BME280;68427;48.476;19.102;2023-04-03T05:50:08;97424.81;;;4.66;51.63
79028;BME280;68427;48.476;19.102;2023-04-03T05:52:36;97415.13;;;4.92;50.57
79028;BME280;68427;48.476;19.102;2023-04-03T05:55:03;97425.50;;;5.09;50.17
79028;BME280;68427;48.476;19.102;2023-04-03T05:57:29;97417.09;;;5.39;48.85
79028;BME280;68427;48.476;19.102;2023-04-03T05:59:55;97419.31;;;5.67;48.04
79028;BME280;68427;48.476;19.102;2023-04-03T06:02:22;97408.69;;;5.93;47.21
79028;BME280;68427;48.476;19.102;2023-04-03T06:04:49;97427.44;;;6.28;46.68
79028;BME280;68427;48.476;19.102;2023-04-03T06:07:17;97427.16;;;6.54;45.17
79028;BME280;68427;48.476;19.102;2023-04-03T06:09:43;97425.41;;;6.78;43.93
79028;BME280;68427;48.476;19.102;2023-04-03T06:12:09;97423.75;;;7.08;44.40
79028;BME280;68427;48.476;19.102;2023-04-03T06:14:35;97423.88;;;7.29;42.17
79028;BME280;68427;48.476;19.102;2023-04-03T06:17:01;97427.34;;;7.45;42.18
79028;BME280;68427;48.476;19.102;2023-04-03T06:19:27;97435.66;;;7.63;41.30
79028;BME280;68427;48.476;19.102;2023-04-03T06:21:54;97441.63;;;8.01;40.29
79028;BME280;68427;48.476;19.102;2023-04-03T06:24:20;97434.06;;;8.51;40.16
79028;BME280;68427;48.476;19.102;2023-04-03T06:26:48;97423.69;;;8.58;39.61
79028;BME280;68427;48.476;19.102;2023-04-03T06:29:15;97443.31;;;8.54;38.35
79028;BME280;68427;48.476;19.102;2023-04-03T06:31:40;97438.75;;;8.77;38.41
79028;BME280;68427;48.476;19.102;2023-04-03T06:34:06;97445.81;;;8.98;38.44
79028;BME280;68427;48.476;19.102;2023-04-03T06:36:32;97443.09;;;9.28;37.25
79028;BME280;68427;48.476;19.102;2023-04-03T06:38:59;97445.25;;;9.74;36.63
79028;BME280;68427;48.476;19.102;2023-04-03T06:41:25;97442.47;;;9.76;36.25
79028;BME280;68427;48.476;19.102;2023-04-03T06:43:52;97448.53;;;10.11;35.73
79028;BME280;68427;48.476;19.102;2023-04-03T06:46:20;97451.03;;;10.26;35.96
79028;BME280;68427;48.476;19.102;2023-04-03T06:48:46;97449.41;;;10.66;33.99
79028;BME280;68427;48.476;19.102;2023-04-03T06:51:17;97451.50;;;10.43;34.49
79028;BME280;68427;48.476;19.102;2023-04-03T06:53:43;97453.38;;;10.55;34.67
79028;BME280;68427;48.476;19.102;2023-04-03T06:56:10;97464.00;;;10.95;34.05
79028;BME280;68427;48.476;19.102;2023-04-03T06:58:36;97452.38;;;11.31;33.53
79028;BME280;68427;48.476;19.102;2023-04-03T07:01:02;97467.53;;;11.96;32.07
79028;BME280;68427;48.476;19.102;2023-04-03T07:03:28;97462.84;;;12.76;31.51
79028;BME280;68427;48.476;19.102;2023-04-03T07:05:54;97461.75;;;12.52;30.05
79028;BME280;68427;48.476;19.102;2023-04-03T07:08:20;97462.22;;;12.22;30.47
79028;BME280;68427;48.476;19.102;2023-04-03T07:10:48;97475.13;;;12.37;30.21
79028;BME280;68427;48.476;19.102;2023-04-03T07:13:15;97478.16;;;12.86;29.54
79028;BME280;68427;48.476;19.102;2023-04-03T07:15:41;97481.28;;;12.69;29.48
79028;BME280;68427;48.476;19.102;2023-04-03T07:18:06;97484.16;;;13.70;28.24
79028;BME280;68427;48.476;19.102;2023-04-03T07:20:32;97486.88;;;13.81;28.10
79028;BME280;68427;48.476;19.102;2023-04-03T07:22:58;97484.69;;;14.22;28.72
79028;BME280;68427;48.476;19.102;2023-04-03T07:25:24;97494.59;;;15.42;26.89
79028;BME280;68427;48.476;19.102;2023-04-03T07:27:49;97493.16;;;15.58;25.87
79028;BME280;68427;48.476;19.102;2023-04-03T07:30:17;97504.81;;;15.39;24.81
79028;BME280;68427;48.476;19.102;2023-04-03T07:32:43;97498.16;;;15.78;25.67
79028;BME280;68427;48.476;19.102;2023-04-03T07:35:09;97501.84;;;16.24;24.34
79028;BME280;68427;48.476;19.102;2023-04-03T07:37:34;97492.41;;;15.81;25.15
79028;BME280;68427;48.476;19.102;2023-04-03T07:40:00;97508.16;;;15.99;24.87
79028;BME280;68427;48.476;19.102;2023-04-03T07:42:28;97512.25;;;16.66;24.00
79028;BME280;68427;48.476;19.102;2023-04-03T07:44:54;97498.19;;;16.89;23.60
79028;BME280;68427;48.476;19.102;2023-04-03T07:47:22;97502.59;;;17.58;23.50
79028;BME280;68427;48.476;19.102;2023-04-03T07:49:48;97507.53;;;16.80;23.62
79028;BME280;68427;48.476;19.102;2023-04-03T07:52:13;97515.81;;;16.83;24.51
79028;BME280;68427;48.476;19.102;2023-04-03T07:54:42;97501.84;;;16.12;25.62
79028;BME280;68427;48.476;19.102;2023-04-03T07:57:08;97498.44;;;15.58;26.43
79028;BME280;68427;48.476;19.102;2023-04-03T07:59:33;97498.19;;;16.25;24.83
79028;BME280;68427;48.476;19.102;2023-04-03T08:01:59;97493.22;;;16.40;24.02
79028;BME280;68427;48.476;19.102;2023-04-03T08:04:26;97486.69;;;16.08;24.71
79028;BME280;68427;48.476;19.102;2023-04-03T08:06:52;97492.16;;;17.68;23.20
79028;BME280;68427;48.476;19.102;2023-04-03T08:09:18;97497.94;;;18.16;22.61
79028;BME280;68427;48.476;19.102;2023-04-03T08:11:45;97490.13;;;18.65;21.12
79028;BME280;68427;48.476;19.102;2023-04-03T08:14:11;97483.72;;;18.39;20.77
79028;BME280;68427;48.476;19.102;2023-04-03T08:16:42;97498.94;;;18.09;22.17
79028;BME280;68427;48.476;19.102;2023-04-03T08:19:08;97486.47;;;17.59;21.90
79028;BME280;68427;48.476;19.102;2023-04-03T08:21:37;97499.09;;;18.03;21.23
79028;BME280;68427;48.476;19.102;2023-04-03T08:24:03;97500.91;;;18.58;21.21
79028;BME280;68427;48.476;19.102;2023-04-03T08:26:29;97505.00;;;19.96;19.26
79028;BME280;68427;48.476;19.102;2023-04-03T08:28:55;97496.31;;;20.54;18.70
79028;BME280;68427;48.476;19.102;2023-04-03T08:31:21;97504.44;;;20.74;18.47
79028;BME280;68427;48.476;19.102;2023-04-03T08:33:46;97498.53;;;20.19;19.29
79028;BME280;68427;48.476;19.102;2023-04-03T08:36:18;97491.94;;;19.57;19.58
79028;BME280;68427;48.476;19.102;2023-04-03T08:38:46;97493.34;;;19.38;19.06
79028;BME280;68427;48.476;19.102;2023-04-03T08:41:15;97498.09;;;20.38;18.21
79028;BME280;68427;48.476;19.102;2023-04-03T08:43:54;97499.97;;;19.95;18.22
79028;BME280;68427;48.476;19.102;2023-04-03T08:46:24;97492.47;;;19.87;18.83
79028;BME280;68427;48.476;19.102;2023-04-03T08:48:52;97494.31;;;20.71;18.37
79028;BME280;68427;48.476;19.102;2023-04-03T08:51:20;97497.91;;;20.49;18.44
79028;BME280;68427;48.476;19.102;2023-04-03T08:53:54;97494.59;;;20.27;18.72
79028;BME280;68427;48.476;19.102;2023-04-03T08:56:22;97495.25;;;19.70;18.93
79028;BME280;68427;48.476;19.102;2023-04-03T08:58:53;97503.28;;;17.99;20.91
79028;BME280;68427;48.476;19.102;2023-04-03T09:01:24;97500.66;;;17.36;22.13
79028;BME280;68427;48.476;19.102;2023-04-03T09:03:51;97503.06;;;17.09;22.48
79028;BME280;68427;48.476;19.102;2023-04-03T09:06:20;97492.00;;;18.25;21.46
79028;BME280;68427;48.476;19.102;2023-04-03T09:08:51;97491.03;;;19.19;20.76
79028;BME280;68427;48.476;19.102;2023-04-03T09:11:26;97495.41;;;20.33;19.67
79028;BME280;68427;48.476;19.102;2023-04-03T09:13:58;97500.22;;;20.36;18.86
79028;BME280;68427;48.476;19.102;2023-04-03T09:16:35;97485.84;;;20.84;18.31
79028;BME280;68427;48.476;19.102;2023-04-03T09:19:12;97486.88;;;20.78;18.46
79028;BME280;68427;48.476;19.102;2023-04-03T09:21:41;97495.94;;;20.77;18.29
79028;BME280;68427;48.476;19.102;2023-04-03T09:24:10;97493.19;;;19.77;19.26
79028;BME280;68427;48.476;19.102;2023-04-03T09:26:42;97499.03;;;20.16;19.39
79028;BME280;68427;48.476;19.102;2023-04-03T09:29:15;97499.91;;;20.27;19.19
79028;BME280;68427;48.476;19.102;2023-04-03T09:31:44;97505.25;;;19.90;18.87
79028;BME280;68427;48.476;19.102;2023-04-03T09:34:19;97501.16;;;19.77;19.29
79028;BME280;68427;48.476;19.102;2023-04-03T09:36:48;97498.00;;;19.53;19.20
79028;BME280;68427;48.476;19.102;2023-04-03T09:39:19;97502.16;;;19.71;19.32
79028;BME280;68427;48.476;19.102;2023-04-03T09:41:59;97507.81;;;19.25;20.01
79028;BME280;68427;48.476;19.102;2023-04-03T09:44:27;97503.97;;;19.38;20.13
79028;BME280;68427;48.476;19.102;2023-04-03T09:46:53;97505.06;;;19.42;19.92
79028;BME280;68427;48.476;19.102;2023-04-03T09:49:20;97503.31;;;19.80;19.39
79028;BME280;68427;48.476;19.102;2023-04-03T09:51:46;97507.56;;;19.81;19.76
79028;BME280;68427;48.476;19.102;2023-04-03T09:54:32;97520.16;;;18.87;19.76
79028;BME280;68427;48.476;19.102;2023-04-03T09:57:01;97520.25;;;19.19;19.76
79028;BME280;68427;48.476;19.102;2023-04-03T09:59:31;97520.66;;;19.60;19.33
79028;BME280;68427;48.476;19.102;2023-04-03T10:01:58;97522.13;;;18.58;19.67
79028;BME280;68427;48.476;19.102;2023-04-03T10:04:24;97514.56;;;18.84;20.31
79028;BME280;68427;48.476;19.102;2023-04-03T10:06:52;97509.59;;;19.41;19.72
79028;BME280;68427;48.476;19.102;2023-04-03T10:09:19;97523.50;;;20.56;19.12
79028;BME280;68427;48.476;19.102;2023-04-03T10:12:01;97512.75;;;19.98;19.12
79028;BME280;68427;48.476;19.102;2023-04-03T10:14:30;97518.91;;;20.99;18.08
79028;BME280;68427;48.476;19.102;2023-04-03T10:17:02;97507.63;;;20.76;18.27
79028;BME280;68427;48.476;19.102;2023-04-03T10:19:36;97514.69;;;21.08;18.40
79028;BME280;68427;48.476;19.102;2023-04-03T10:22:15;97523.38;;;20.83;18.37
79028;BME280;68427;48.476;19.102;2023-04-03T10:24:50;97511.41;;;20.85;17.92
79028;BME280;68427;48.476;19.102;2023-04-03T10:27:26;97521.56;;;21.04;18.72
79028;BME280;68427;48.476;19.102;2023-04-03T10:29:59;97526.53;;;22.04;17.50
79028;BME280;68427;48.476;19.102;2023-04-03T10:32:44;97526.53;;;21.63;17.63
79028;BME280;68427;48.476;19.102;2023-04-03T10:35:18;97509.50;;;20.81;18.59
79028;BME280;68427;48.476;19.102;2023-04-03T10:38:00;97515.81;;;20.59;18.91
79028;BME280;68427;48.476;19.102;2023-04-03T10:40:31;97512.50;;;20.89;18.01
79028;BME280;68427;48.476;19.102;2023-04-03T10:43:06;97524.59;;;21.38;17.78
79028;BME280;68427;48.476;19.102;2023-04-03T10:45:50;97512.28;;;21.11;18.30
79028;BME280;68427;48.476;19.102;2023-04-03T10:48:26;97516.47;;;20.39;18.10
79028;BME280;68427;48.476;19.102;2023-04-03T10:51:01;97514.44;;;20.52;19.12
79028;BME280;68427;48.476;19.102;2023-04-03T10:53:36;97511.25;;;21.28;17.84
79028;BME280;68427;48.476;19.102;2023-04-03T10:56:11;97507.19;;;20.95;17.61
79028;BME280;68427;48.476;19.102;2023-04-03T10:58:41;97511.41;;;20.90;18.09
79028;BME280;68427;48.476;19.102;2023-04-03T11:01:13;97506.38;;;20.46;18.60
79028;BME280;68427;48.476;19.102;2023-04-03T11:03:42;97512.66;;;20.25;18.38
79028;BME280;68427;48.476;19.102;2023-04-03T11:06:11;97518.91;;;19.71;19.04
79028;BME280;68427;48.476;19.102;2023-04-03T11:08:41;97514.78;;;18.82;20.55
79028;BME280;68427;48.476;19.102;2023-04-03T11:11:12;97524.84;;;19.02;20.23
79028;BME280;68427;48.476;19.102;2023-04-03T11:13:45;97511.91;;;19.65;19.53
79028;BME280;68427;48.476;19.102;2023-04-03T11:16:17;97527.09;;;19.15;19.43
79028;BME280;68427;48.476;19.102;2023-04-03T11:18:47;97518.78;;;19.07;20.38
79028;BME280;68427;48.476;19.102;2023-04-03T11:21:20;97519.78;;;19.00;19.92
79028;BME280;68427;48.476;19.102;2023-04-03T11:23:49;97517.59;;;18.53;20.98
79028;BME280;68427;48.476;19.102;2023-04-03T11:26:18;97518.19;;;18.77;20.90
79028;BME280;68427;48.476;19.102;2023-04-03T11:28:52;97514.38;;;18.51;21.90
79028;BME280;68427;48.476;19.102;2023-04-03T11:31:44;97511.28;;;18.98;20.55
79028;BME280;68427;48.476;19.102;2023-04-03T11:34:24;97501.13;;;18.73;20.55
79028;BME280;68427;48.476;19.102;2023-04-03T11:36:56;97508.91;;;18.19;20.39
79028;BME280;68427;48.476;19.102;2023-04-03T11:39:28;97501.09;;;18.29;20.23
79028;BME280;68427;48.476;19.102;2023-04-03T11:41:54;97508.19;;;17.90;21.25
79028;BME280;68427;48.476;19.102;2023-04-03T11:44:36;97505.03;;;17.93;21.32
79028;BME280;68427;48.476;19.102;2023-04-03T11:47:03;97506.88;;;18.09;21.05
79028;BME280;68427;48.476;19.102;2023-04-03T11:49:52;97510.25;;;18.05;20.30
79028;BME280;68427;48.476;19.102;2023-04-03T11:52:56;97506.06;;;17.58;21.37
79028;BME280;68427;48.476;19.102;2023-04-03T11:55:46;97498.44;;;18.12;21.67
79028;BME280;68427;48.476;19.102;2023-04-03T11:58:17;97509.72;;;17.40;21.96
79028;BME280;68427;48.476;19.102;2023-04-03T12:00:56;97498.13;;;17.30;22.46
79028;BME280;68427;48.476;19.102;2023-04-03T12:03:31;97505.41;;;17.05;21.43
79028;BME280;68427;48.476;19.102;2023-04-03T12:06:42;97498.47;;;17.04;22.02
79028;BME280;68427;48.476;19.102;2023-04-03T12:08:46;97502.50;;;17.36;22.34
79028;BME280;68427;48.476;19.102;2023-04-03T12:11:19;97497.56;;;16.35;23.35
79028;BME280;68427;48.476;19.102;2023-04-03T12:14:03;97496.19;;;17.08;22.29
79028;BME280;68427;48.476;19.102;2023-04-03T12:16:30;97498.50;;;16.93;22.34
79028;BME280;68427;48.476;19.102;2023-04-03T12:18:59;97498.03;;;16.32;23.37
79028;BME280;68427;48.476;19.102;2023-04-03T12:22:05;97496.94;;;15.50;24.00
79028;BME280;68427;48.476;19.102;2023-04-03T12:24:34;97493.31;;;15.33;23.85
79028;BME280;68427;48.476;19.102;2023-04-03T12:27:34;97488.97;;;15.08;24.31
79028;BME280;68427;48.476;19.102;2023-04-03T12:30:05;97490.72;;;14.66;24.32
79028;BME280;68427;48.476;19.102;2023-04-03T12:32:41;97495.50;;;14.14;25.83
79028;BME280;68427;48.476;19.102;2023-04-03T12:35:19;97486.69;;;14.45;25.74
79028;BME280;68427;48.476;19.102;2023-04-03T12:40:51;97493.53;;;15.31;25.66
79028;BME280;68427;48.476;19.102;2023-04-03T12:43:34;97488.09;;;14.47;25.83
79028;BME280;68427;48.476;19.102;2023-04-03T12:46:11;97484.88;;;15.12;26.71
79028;BME280;68427;48.476;19.102;2023-04-03T12:48:48;97492.69;;;14.52;24.89
79028;BME280;68427;48.476;19.102;2023-04-03T12:51:14;97492.75;;;14.27;26.65
79028;BME280;68427;48.476;19.102;2023-04-03T12:53:42;97487.78;;;13.94;26.86
79028;BME280;68427;48.476;19.102;2023-04-03T12:56:22;97496.47;;;13.94;25.68
79028;BME280;68427;48.476;19.102;2023-04-03T12:58:49;97494.59;;;13.51;26.67
79028;BME280;68427;48.476;19.102;2023-04-03T13:01:17;97501.00;;;13.37;26.00
79028;BME280;68427;48.476;19.102;2023-04-03T13:03:45;97510.63;;;12.60;27.99
79028;BME280;68427;48.476;19.102;2023-04-03T13:06:17;97508.47;;;12.37;29.50